Alexandria, VA (22304)

6:07 AM EDT on August 21, 2014 (GMT -0400)
Exchange At Van Dorn | Change Station
CLOSE
Current Station
Personal Weather Station
Location: Alexandria, VA
Elevation: 120 ft
Nearby Weather Stations

Elev 120 ft 38.80 °N, 77.12 °W | Updated 21 seconds ago

Partly Cloudy
Partly Cloudy
66.4 °F
Feels Like 66.4 °F
N
0.0
Wind Variable Wind from ENE
Gusts 0.0 mph

Today
High -- | Low -- °F
--% Chance of Precip.
Yesterday
High -- | Low -- °F
Precip. -- in
6:27 AM 7:54 PM
Waning Crescent, 15% visible
Pressure 30.02 in
Visibility 9.0 miles
Clouds Few 1500 ft
Dew Point 67 °F
Humidity 98%
Rainfall 0.00 in
Snow Depth Not available.
UV 0.0 out of 12
Pollen 9.00 out of 12
Ozone Good
PM2.5 Good
Flu Activity Not available.
SPECI KDCA 210956Z 00000KT 9SM FEW015 22/19 A3002 RMK AO2

More Conditions Fewer Conditions

Pressure 30.02 in
Visibility 9.0 miles
Clouds Few 1500 ft
Dew Point 67 °F
Humidity 98%
Rainfall 0.00 in
Snow Depth Not available.
UV 0.0 out of 12
Pollen 9.00 out of 12
Ozone Good
PM2.5 Good
Flu Activity Not available.
SPECI KDCA 210956Z 00000KT 9SM FEW015 22/19 A3002 RMK AO2

More Conditions Fewer Conditions

10-Day Weather Forecast

Almanac

Astronomy

Aug. 21, 2014 Rise Set
Actual Time 6:27 AM EDT 7:54 PM EDT
Civil Twilight 5:59 AM EDT 8:22 PM EDT
Nautical Twilight 5:25 AM EDT 8:56 PM EDT
Astronomical Twilight 4:50 AM EDT 9:31 PM EDT
Moon 2:57 AM EDT 5:21 PM EDT
Length of Visible Light 14h 23m
Length of Day
13h 27m
Tomorrow will be 2m 19s shorter.
Waning Crescent, 15% of the Moon is Illuminated
Today
Waning Crescent
Aug 25
New
Sep 2
First Quarter
Sep 8
Full
Sep 15
Last Quarter

Today's Extremes

State Highs State Lows

Community

WunderPhotos

Upload Photos

1,745,871 photos uploaded!

Nearby

Air Quality

  Air Quality AQ Index Pollutant
Yesterday Good
OZONE
Yesterday Good
PM10
Current Good
PM2.5
Current Good
OZONE
Thursday Good
OZONE
Thursday Good
PM2.5
Friday Moderate
PM2.5
Friday Good
OZONE
Saturday Good
PM2.5
Saturday Good
OZONE

Snow Depth

Station Depth Elevation
No new snow has been reported.

Earthquake Activity

City Distance Mag. Time & Date
No recent earthquake activity has been reported nearby.
Minimum magnitude displayed is 2.5.

Coastal Water Temperatures

Place Temperature
Washington, DC 78.1 °F
Baltimore, MD 80.1 °F
Solomons Island, MD 80.1 °F

Nearby Weather Stations